createdAt,value
2023-03-20T00:01:56.623Z,10.05
2023-03-20T00:04:23.368Z,7.95
2023-03-20T00:06:50.211Z,9.15
2023-03-20T00:09:17.954Z,8.82
2023-03-20T00:11:49.777Z,9.70
2023-03-20T00:14:19.340Z,8.35
2023-03-20T00:16:48.288Z,6.55
2023-03-20T00:19:19.002Z,8.15
2023-03-20T00:21:47.556Z,9.82
2023-03-20T00:24:15.561Z,7.55
2023-03-20T00:26:43.956Z,9.65
2023-03-20T00:29:20.622Z,9.55
2023-03-20T00:31:47.538Z,10.70
2023-03-20T00:34:19.233Z,13.85
2023-03-20T00:36:46.354Z,11.57
2023-03-20T00:39:13.036Z,8.55
2023-03-20T00:41:39.679Z,10.10
2023-03-20T00:44:34.700Z,11.73
2023-03-20T00:47:04.964Z,7.93
2023-03-20T00:49:34.230Z,9.57
2023-03-20T00:52:02.413Z,10.95
2023-03-20T00:54:29.636Z,11.30
2023-03-20T00:57:02.509Z,10.18
2023-03-20T00:59:33.555Z,10.05
2023-03-20T01:02:02.417Z,11.00
2023-03-20T01:04:42.086Z,9.25
2023-03-20T01:07:13.864Z,10.60
2023-03-20T01:09:40.564Z,10.43
2023-03-20T01:12:08.054Z,8.88
2023-03-20T01:14:35.229Z,11.50
2023-03-20T01:17:01.978Z,9.45
2023-03-20T01:19:28.625Z,8.88
2023-03-20T01:21:55.393Z,10.52
2023-03-20T01:24:22.059Z,8.70
2023-03-20T01:26:51.630Z,8.82
2023-03-20T01:29:23.714Z,9.18
2023-03-20T01:31:51.498Z,10.70
2023-03-20T01:34:19.215Z,11.48
2023-03-20T01:36:50.181Z,9.75
2023-03-20T01:39:18.994Z,11.18
2023-03-20T01:41:47.091Z,10.07
2023-03-20T01:44:22.993Z,10.43
2023-03-20T01:46:52.683Z,10.48
2023-03-20T01:49:19.422Z,11.18
2023-03-20T01:51:47.362Z,10.00
2023-03-20T01:54:22.439Z,9.52
2023-03-20T01:57:25.352Z,10.02
2023-03-20T02:00:13.529Z,9.88
2023-03-20T02:02:41.013Z,11.45
2023-03-20T02:05:11.261Z,11.45
2023-03-20T02:07:39.198Z,11.02
2023-03-20T02:10:10.651Z,11.32
2023-03-20T02:12:38.645Z,12.70
2023-03-20T02:15:07.347Z,10.90
2023-03-20T02:17:34.358Z,10.75
2023-03-20T02:20:06.607Z,11.88
2023-03-20T02:22:51.055Z,10.82
2023-03-20T02:25:44.095Z,11.70
2023-03-20T02:28:28.509Z,11.40
2023-03-20T02:31:01.196Z,10.32
2023-03-20T02:34:12.772Z,9.98
2023-03-20T02:36:59.705Z,14.65
2023-03-20T02:40:04.585Z,9.52
2023-03-20T02:42:37.777Z,11.63
2023-03-20T02:45:17.266Z,9.13
2023-03-20T02:48:01.992Z,10.38
2023-03-20T02:50:47.352Z,10.95
2023-03-20T02:53:16.781Z,12.20
2023-03-20T02:56:01.045Z,10.52
2023-03-20T02:58:39.050Z,9.98
2023-03-20T03:01:22.101Z,10.10
2023-03-20T03:04:00.894Z,9.75
2023-03-20T03:06:31.556Z,11.18
2023-03-20T03:09:36.721Z,13.65
2023-03-20T03:12:18.036Z,9.35
2023-03-20T03:14:49.962Z,10.48
2023-03-20T03:17:19.542Z,11.77
2023-03-20T03:19:50.267Z,11.88
2023-03-20T03:22:17.871Z,11.63
2023-03-20T03:24:47.202Z,11.65
2023-03-20T03:27:22.442Z,11.05
2023-03-20T03:30:13.298Z,12.30
2023-03-20T03:33:05.829Z,12.98
2023-03-20T03:35:32.625Z,12.65
2023-03-20T03:38:11.068Z,13.35
2023-03-20T03:40:46.414Z,15.00
2023-03-20T03:43:24.789Z,13.40
2023-03-20T03:46:12.441Z,12.32
2023-03-20T03:48:45.360Z,13.70
2023-03-20T03:51:16.569Z,11.40
2023-03-20T03:53:49.737Z,12.27
2023-03-20T03:56:21.993Z,14.27
2023-03-20T03:58:56.688Z,14.82
2023-03-20T04:01:25.954Z,12.65
2023-03-20T04:03:56.990Z,12.95
2023-03-20T04:06:25.909Z,14.85
2023-03-20T04:08:52.556Z,16.35
2023-03-20T04:11:21.315Z,13.23
2023-03-20T04:13:50.565Z,14.65
2023-03-20T04:16:19.308Z,13.05
2023-03-20T04:18:46.288Z,13.38
2023-03-20T04:21:13.340Z,16.23
2023-03-20T04:23:40.031Z,12.45
2023-03-20T04:26:06.969Z,13.77
2023-03-20T04:28:33.812Z,11.95
2023-03-20T04:31:02.299Z,11.52
2023-03-20T04:33:29.069Z,12.02
2023-03-20T04:35:56.485Z,15.85
2023-03-20T04:38:24.464Z,12.23
2023-03-20T04:40:51.270Z,16.88
2023-03-20T04:43:18.394Z,15.73
2023-03-20T04:45:45.155Z,15.48
2023-03-20T04:48:11.917Z,14.40
2023-03-20T04:50:38.747Z,14.05
2023-03-20T04:53:05.823Z,18.63
2023-03-20T04:55:32.611Z,16.58
2023-03-20T04:57:59.320Z,14.23
2023-03-20T05:00:26.184Z,19.65
2023-03-20T05:02:52.832Z,16.77
2023-03-20T05:05:19.495Z,14.27
2023-03-20T05:07:46.224Z,18.60
2023-03-20T05:10:13.453Z,17.30
2023-03-20T05:12:40.120Z,21.38
2023-03-20T05:15:07.463Z,18.45
2023-03-20T05:17:34.108Z,15.63
2023-03-20T05:20:00.838Z,23.92
2023-03-20T05:22:27.472Z,19.35
2023-03-20T05:24:54.165Z,22.08
2023-03-20T05:27:20.959Z,17.05
2023-03-20T05:29:47.619Z,23.20
2023-03-20T05:32:15.563Z,17.45
2023-03-20T05:34:42.262Z,16.75
2023-03-20T05:37:09.036Z,17.17
2023-03-20T05:39:35.776Z,15.38
2023-03-20T05:42:02.411Z,18.55
2023-03-20T05:44:29.059Z,14.77
2023-03-20T05:46:55.869Z,18.70
2023-03-20T05:49:22.486Z,16.67
2023-03-20T05:51:49.148Z,15.57
2023-03-20T05:54:16.484Z,14.18
2023-03-20T05:56:43.232Z,19.88
2023-03-20T05:59:10.845Z,17.55
2023-03-20T06:01:37.500Z,17.30
2023-03-20T06:04:04.274Z,15.85
2023-03-20T06:06:31.146Z,22.08
2023-03-20T06:08:57.804Z,26.55
2023-03-20T06:11:24.554Z,18.83
2023-03-20T06:13:54.485Z,17.90
2023-03-20T06:16:21.536Z,16.67
2023-03-20T06:18:49.106Z,16.63
2023-03-20T06:21:15.785Z,15.13
2023-03-20T06:23:42.488Z,16.00
2023-03-20T06:26:09.748Z,18.50
2023-03-20T06:28:37.179Z,18.42
2023-03-20T06:31:03.980Z,18.88
2023-03-20T06:33:30.661Z,20.83
2023-03-20T06:35:57.704Z,16.27
2023-03-20T06:38:24.399Z,17.02
2023-03-20T06:40:51.072Z,16.88
2023-03-20T06:43:17.818Z,17.27
2023-03-20T06:45:44.483Z,18.63
2023-03-20T06:48:11.330Z,18.67
2023-03-20T06:50:38.334Z,16.50
2023-03-20T06:53:05.632Z,16.55
2023-03-20T06:55:32.755Z,15.65
2023-03-20T06:57:59.475Z,14.80
2023-03-20T07:00:26.218Z,16.52
2023-03-20T07:02:53.413Z,15.50
2023-03-20T07:05:20.445Z,12.85
2023-03-20T07:07:47.562Z,15.68
2023-03-20T07:10:14.357Z,19.42
2023-03-20T07:12:41.112Z,14.70
2023-03-20T07:15:08.165Z,18.63
2023-03-20T07:17:35.719Z,16.58
2023-03-20T07:20:03.010Z,15.13
2023-03-20T07:22:31.623Z,15.07
2023-03-20T07:24:58.371Z,18.13
2023-03-20T07:27:25.150Z,15.13
2023-03-20T07:29:52.284Z,18.65
2023-03-20T07:32:19.161Z,14.98
2023-03-20T07:34:47.482Z,17.95
2023-03-20T07:37:14.305Z,16.50
2023-03-20T07:39:41.072Z,15.90
2023-03-20T07:42:07.952Z,16.13
2023-03-20T07:44:35.125Z,18.52
2023-03-20T07:47:01.785Z,21.27
2023-03-20T07:49:28.508Z,17.02
2023-03-20T07:51:55.249Z,25.92
2023-03-20T07:54:22.014Z,18.30
2023-03-20T07:56:48.795Z,21.73
2023-03-20T07:59:15.669Z,18.58
2023-03-20T08:01:42.317Z,17.23
2023-03-20T08:04:09.196Z,17.70
2023-03-20T08:06:36.484Z,15.13
2023-03-20T08:09:03.492Z,17.98
2023-03-20T08:11:31.525Z,15.95
2023-03-20T08:13:59.243Z,16.35
2023-03-20T08:16:26.085Z,15.13
2023-03-20T08:18:53.185Z,18.30
2023-03-20T08:21:20.179Z,16.55
2023-03-20T08:23:46.892Z,22.30
2023-03-20T08:26:13.805Z,16.40
2023-03-20T08:28:47.479Z,16.90
2023-03-20T08:31:15.531Z,19.42
2023-03-20T08:33:42.336Z,15.60
2023-03-20T08:36:09.264Z,17.80
2023-03-20T08:38:36.174Z,15.50
2023-03-20T08:41:03.279Z,19.63
2023-03-20T08:43:30.008Z,15.65
2023-03-20T08:45:56.771Z,16.00
2023-03-20T08:48:23.474Z,15.93
2023-03-20T08:50:50.401Z,19.30
2023-03-20T08:53:17.134Z,16.92
2023-03-20T08:55:50.603Z,16.42
2023-03-20T08:58:18.729Z,24.15
2023-03-20T09:00:45.501Z,23.42
2023-03-20T09:03:14.846Z,20.25
2023-03-20T09:05:44.057Z,19.95
2023-03-20T09:08:10.846Z,16.52
2023-03-20T09:10:38.046Z,21.35
2023-03-20T09:13:23.513Z,19.00
2023-03-20T09:15:52.523Z,16.02
2023-03-20T09:18:20.405Z,22.33
2023-03-20T09:20:47.831Z,17.35
2023-03-20T09:23:14.532Z,23.35
2023-03-20T09:25:41.479Z,23.63
2023-03-20T09:28:08.222Z,25.58
2023-03-20T09:30:35.453Z,18.02
2023-03-20T09:33:02.470Z,16.88
2023-03-20T09:35:29.184Z,17.15
2023-03-20T09:37:56.593Z,21.42
2023-03-20T09:40:33.724Z,22.85
2023-03-20T09:43:18.799Z,30.30
2023-03-20T09:45:51.750Z,21.10
2023-03-20T09:48:35.187Z,23.00
2023-03-20T09:51:13.889Z,16.25
2023-03-20T09:53:54.252Z,15.30
2023-03-20T09:56:25.540Z,16.60
2023-03-20T09:59:01.197Z,17.38
2023-03-20T10:01:38.404Z,18.85
2023-03-20T10:04:11.635Z,20.88
2023-03-20T10:06:39.036Z,15.10
2023-03-20T10:09:18.034Z,16.58
2023-03-20T10:11:58.739Z,22.45
2023-03-20T10:14:34.867Z,14.65
2023-03-20T10:19:56.973Z,20.97
2023-03-20T10:22:29.565Z,15.60
2023-03-20T10:25:05.124Z,11.85
2023-03-20T10:27:44.180Z,13.65
2023-03-20T10:30:40.204Z,13.57
2023-03-20T10:33:12.705Z,12.38
2023-03-20T10:35:54.159Z,12.65
2023-03-20T10:38:49.235Z,13.90
2023-03-20T10:41:29.365Z,13.40
2023-03-20T10:43:56.700Z,15.40
2023-03-20T10:46:26.951Z,14.18
2023-03-20T10:49:21.784Z,13.75
2023-03-20T10:51:52.607Z,12.30
2023-03-20T10:54:33.626Z,13.82
2023-03-20T10:57:03.013Z,13.50
2023-03-20T10:59:40.769Z,13.00
2023-03-20T11:02:12.301Z,11.95
2023-03-20T11:04:39.246Z,12.52
2023-03-20T11:07:25.416Z,12.05
2023-03-20T11:10:26.032Z,14.90
2023-03-20T11:12:52.764Z,12.95
2023-03-20T11:15:29.882Z,12.73
2023-03-20T11:17:56.636Z,12.20
2023-03-20T11:20:24.271Z,14.77
2023-03-20T11:22:57.690Z,14.38
2023-03-20T11:25:34.093Z,14.05
2023-03-20T11:28:20.332Z,13.40
2023-03-20T11:31:03.504Z,11.20
2023-03-20T11:33:32.324Z,12.23
2023-03-20T11:35:59.784Z,11.43
2023-03-20T11:38:30.057Z,14.30
2023-03-20T11:40:56.697Z,11.68
2023-03-20T11:43:27.090Z,11.98
2023-03-20T11:45:57.992Z,12.20
2023-03-20T11:48:39.650Z,12.88
2023-03-20T11:51:14.200Z,16.85
2023-03-20T11:54:02.593Z,13.93
2023-03-20T11:56:32.776Z,12.70
2023-03-20T11:59:15.650Z,16.52
2023-03-20T12:01:48.810Z,16.08
2023-03-20T12:04:20.721Z,16.95
2023-03-20T12:07:19.355Z,11.95
2023-03-20T12:09:53.695Z,18.33
2023-03-20T12:12:32.482Z,15.90
2023-03-20T12:15:10.590Z,19.08
2023-03-20T12:17:46.144Z,15.13
2023-03-20T12:20:47.024Z,14.80
2023-03-20T12:23:23.823Z,14.05
2023-03-20T12:26:24.906Z,17.00
2023-03-20T12:29:23.434Z,15.68
2023-03-20T12:32:02.510Z,19.98
2023-03-20T12:34:59.440Z,19.30
2023-03-20T12:37:26.552Z,17.85
2023-03-20T12:39:59.843Z,20.63
2023-03-20T12:42:45.852Z,16.77
2023-03-20T12:45:19.441Z,18.90
2023-03-20T12:48:04.705Z,16.42
2023-03-20T12:50:36.533Z,17.13
2023-03-20T12:53:31.413Z,17.20
2023-03-20T12:56:07.169Z,17.10
2023-03-20T12:58:57.890Z,18.27
2023-03-20T13:01:58.424Z,15.65
2023-03-20T13:04:55.812Z,15.05
2023-03-20T13:07:36.890Z,16.50
2023-03-20T13:10:29.041Z,15.63
2023-03-20T13:13:07.973Z,17.42
2023-03-20T13:16:01.527Z,17.00
2023-03-20T13:18:33.999Z,16.58
2023-03-20T13:21:10.576Z,15.60
2023-03-20T13:24:06.138Z,15.40
2023-03-20T13:26:41.109Z,18.80
2023-03-20T13:29:48.792Z,15.90
2023-03-20T13:32:32.857Z,14.88
2023-03-20T13:35:23.634Z,14.07
2023-03-20T13:37:59.199Z,11.55
2023-03-20T13:40:29.264Z,13.43
2023-03-20T13:43:08.584Z,12.02
2023-03-20T13:45:38.253Z,12.00
2023-03-20T13:48:34.183Z,13.25
2023-03-20T13:51:19.364Z,10.18
2023-03-20T13:53:54.798Z,13.82
2023-03-20T13:56:48.973Z,11.48
2023-03-20T13:59:37.491Z,11.82
2023-03-20T14:02:42.039Z,11.13
2023-03-20T14:05:17.546Z,12.85
2023-03-20T14:07:46.580Z,10.77
2023-03-20T14:10:22.423Z,8.45
2023-03-20T14:13:01.472Z,11.82
2023-03-20T14:15:33.130Z,10.18
2023-03-20T14:18:07.884Z,13.65
2023-03-20T14:20:38.912Z,12.07
2023-03-20T14:23:07.268Z,11.60
2023-03-20T14:25:40.624Z,11.88
2023-03-20T14:28:13.434Z,10.68
2023-03-20T14:30:46.221Z,10.10
2023-03-20T14:33:12.873Z,13.73
2023-03-20T14:35:48.984Z,12.85
2023-03-20T14:38:35.573Z,10.85
2023-03-20T14:46:34.653Z,11.05
2023-03-20T14:49:19.220Z,10.52
2023-03-20T14:51:48.371Z,11.73
2023-03-20T14:54:28.196Z,11.25
2023-03-20T14:56:56.168Z,9.15
2023-03-20T14:59:24.371Z,10.00
2023-03-20T15:02:01.655Z,14.10
2023-03-20T15:04:39.179Z,10.00
2023-03-20T15:07:14.580Z,11.82
2023-03-20T15:09:46.511Z,10.98
2023-03-20T15:12:17.735Z,8.88
2023-03-20T15:14:53.784Z,12.32
2023-03-20T15:17:23.707Z,8.85
2023-03-20T15:19:51.040Z,9.25
2023-03-20T15:22:20.266Z,8.68
2023-03-20T15:24:55.727Z,10.80
2023-03-20T15:27:26.081Z,7.18
2023-03-20T15:29:55.495Z,6.82
2023-03-20T15:32:23.711Z,8.65
2023-03-20T15:34:51.127Z,8.25
2023-03-20T15:37:24.350Z,7.70
2023-03-20T15:39:56.149Z,7.55
2023-03-20T15:42:25.518Z,7.88
2023-03-20T15:44:54.386Z,8.18
2023-03-20T15:47:23.449Z,7.18
2023-03-20T15:49:54.783Z,6.47
2023-03-20T15:52:42.334Z,9.40
2023-03-20T15:55:17.659Z,8.75
2023-03-20T15:57:50.071Z,8.90
2023-03-20T16:00:39.707Z,9.65
2023-03-20T16:03:11.181Z,7.25
2023-03-20T16:05:37.890Z,11.00
2023-03-20T16:08:24.665Z,11.50
2023-03-20T16:10:59.697Z,9.30
2023-03-20T16:15:57.105Z,10.50
2023-03-20T16:18:24.223Z,14.35
2023-03-20T16:20:58.461Z,10.60
2023-03-20T16:23:42.000Z,11.35
2023-03-20T16:26:15.788Z,12.57
2023-03-20T16:28:45.381Z,13.98
2023-03-20T16:31:15.949Z,11.95
2023-03-20T16:33:44.014Z,10.02
2023-03-20T16:36:20.791Z,11.52
2023-03-20T16:39:16.777Z,9.93
2023-03-20T16:41:45.456Z,12.73
2023-03-20T16:44:19.179Z,12.63
2023-03-20T16:47:03.151Z,14.40
2023-03-20T16:49:29.865Z,13.90
2023-03-20T16:52:05.143Z,14.60
2023-03-20T16:54:36.176Z,10.70
2023-03-20T16:57:07.856Z,11.90
2023-03-20T16:59:39.622Z,9.68
2023-03-20T17:02:25.971Z,14.20
2023-03-20T17:05:03.282Z,12.43
2023-03-20T17:07:31.007Z,14.02
2023-03-20T17:09:59.319Z,12.27
2023-03-20T17:12:31.011Z,12.10
2023-03-20T17:14:57.635Z,11.90
2023-03-20T17:17:25.822Z,12.65
2023-03-20T17:19:53.048Z,14.02
2023-03-20T17:22:25.208Z,17.58
2023-03-20T17:24:52.605Z,13.23
2023-03-20T17:27:20.557Z,12.38
2023-03-20T17:29:51.465Z,12.20
2023-03-20T17:32:20.440Z,13.35
2023-03-20T17:34:47.111Z,14.38
2023-03-20T17:37:17.238Z,12.48
2023-03-20T17:39:43.964Z,15.38
2023-03-20T17:42:24.440Z,14.80
2023-03-20T17:44:51.088Z,13.45
2023-03-20T17:47:20.697Z,15.05
2023-03-20T17:49:48.689Z,13.50
2023-03-20T17:52:18.232Z,12.65
2023-03-20T17:54:45.767Z,13.63
2023-03-20T17:57:18.618Z,13.35
2023-03-20T17:59:45.515Z,12.63
2023-03-20T18:02:12.171Z,12.50
2023-03-20T18:04:38.829Z,14.30
2023-03-20T18:07:06.968Z,19.55
2023-03-20T18:09:33.600Z,38.78
2023-03-20T18:12:00.529Z,21.08
2023-03-20T18:14:27.210Z,15.20
2023-03-20T18:16:53.888Z,17.77
2023-03-20T18:19:28.319Z,16.50
2023-03-20T18:21:56.691Z,17.45
2023-03-20T18:24:23.983Z,20.05
2023-03-20T18:26:51.498Z,15.70
2023-03-20T18:29:18.713Z,18.00
2023-03-20T18:31:47.147Z,18.75
2023-03-20T18:34:14.013Z,17.63
2023-03-20T18:36:41.111Z,16.67
2023-03-20T18:39:08.122Z,11.65
2023-03-20T18:41:34.836Z,15.35
2023-03-20T18:44:01.529Z,18.17
2023-03-20T18:46:28.277Z,14.02
2023-03-20T18:48:55.165Z,20.50
2023-03-20T18:51:21.879Z,23.02
2023-03-20T18:53:48.618Z,18.92
2023-03-20T18:56:18.523Z,16.30
2023-03-20T18:58:46.283Z,22.73
2023-03-20T19:01:15.431Z,19.08
2023-03-20T19:03:44.056Z,15.98
2023-03-20T19:06:14.414Z,15.98
2023-03-20T19:08:41.405Z,20.02
2023-03-20T19:11:15.168Z,12.73
2023-03-20T19:13:45.438Z,20.58
2023-03-20T19:16:27.213Z,15.07
2023-03-20T19:18:55.858Z,14.77
2023-03-20T19:21:28.813Z,13.32
2023-03-20T19:23:58.197Z,16.35
2023-03-20T19:26:27.048Z,16.90
2023-03-20T19:28:55.549Z,17.17
2023-03-20T19:31:23.116Z,16.33
2023-03-20T19:33:50.769Z,19.83
2023-03-20T19:36:20.586Z,17.70
2023-03-20T19:38:47.295Z,17.42
2023-03-20T19:41:14.798Z,17.58
2023-03-20T19:43:52.055Z,20.85
2023-03-20T19:46:38.541Z,17.90
2023-03-20T19:49:06.024Z,18.10
2023-03-20T19:51:33.089Z,16.65
2023-03-20T19:53:59.837Z,14.93
2023-03-20T19:56:27.083Z,15.27
2023-03-20T19:58:54.096Z,15.27
2023-03-20T20:01:25.293Z,19.15
2023-03-20T20:03:53.562Z,14.65
2023-03-20T20:06:22.366Z,14.40
2023-03-20T20:08:49.787Z,10.90
2023-03-20T20:11:21.245Z,12.43
2023-03-20T20:16:36.616Z,9.82
2023-03-20T20:19:03.870Z,10.27
2023-03-20T20:24:17.365Z,9.57
2023-03-20T20:26:54.251Z,10.73
2023-03-20T20:29:26.242Z,9.27
2023-03-20T20:31:53.018Z,10.75
2023-03-20T20:39:53.292Z,17.42
2023-03-20T20:42:20.542Z,10.25
2023-03-20T20:44:47.825Z,10.02
2023-03-20T20:47:14.862Z,12.55
2023-03-20T20:49:41.721Z,17.92
2023-03-20T20:52:08.962Z,15.52
2023-03-20T20:54:35.803Z,22.90
2023-03-20T20:57:03.099Z,17.83
2023-03-20T20:59:30.029Z,13.35
2023-03-20T21:01:56.803Z,11.00
2023-03-20T21:04:23.886Z,13.85
2023-03-20T21:09:37.757Z,7.38
2023-03-20T21:12:05.151Z,11.05
2023-03-20T21:14:32.062Z,9.23
2023-03-20T21:17:02.214Z,10.00
2023-03-20T21:19:33.721Z,8.15
2023-03-20T21:22:00.420Z,9.35
2023-03-20T21:24:33.170Z,5.90
2023-03-20T21:27:01.148Z,7.20
2023-03-20T21:29:27.999Z,8.60
2023-03-20T21:31:54.876Z,6.63
2023-03-20T21:34:21.858Z,7.22
2023-03-20T21:36:49.321Z,8.88
2023-03-20T21:39:17.540Z,8.40
2023-03-20T21:41:45.235Z,8.88
2023-03-20T21:44:17.631Z,8.98
2023-03-20T21:56:02.369Z,11.52
2023-03-20T22:01:39.346Z,8.15
2023-03-20T22:20:58.874Z,7.05
2023-03-20T22:32:02.476Z,6.18
2023-03-20T22:34:53.743Z,8.90
2023-03-20T22:37:53.309Z,6.07
2023-03-20T22:47:49.292Z,5.70
2023-03-20T22:50:16.824Z,6.47
2023-03-20T22:52:49.149Z,5.68
2023-03-20T22:55:17.439Z,3.38
2023-03-20T22:57:56.161Z,5.47
2023-03-20T23:00:31.109Z,3.40
2023-03-20T23:03:11.471Z,3.53
2023-03-20T23:05:41.127Z,4.53
2023-03-20T23:08:08.703Z,4.97
2023-03-20T23:10:37.798Z,3.97
2023-03-20T23:13:05.120Z,5.28
2023-03-20T23:15:32.028Z,4.22
2023-03-20T23:17:58.923Z,2.97
2023-03-20T23:20:26.010Z,4.53
2023-03-20T23:22:53.037Z,4.20
2023-03-20T23:25:31.065Z,3.03
2023-03-20T23:28:05.336Z,4.20
2023-03-20T23:30:43.496Z,4.20
2023-03-20T23:33:10.772Z,6.57
2023-03-20T23:35:37.548Z,3.22
2023-03-20T23:38:04.305Z,2.70
2023-03-20T23:40:30.982Z,4.10
2023-03-20T23:42:57.712Z,3.88
2023-03-20T23:45:24.442Z,5.80
2023-03-20T23:47:51.268Z,4.88
2023-03-20T23:50:30.011Z,5.50
2023-03-20T23:53:09.833Z,3.42
2023-03-20T23:55:45.772Z,3.08
2023-03-20T23:58:12.974Z,3.25
